Time;durP1;ratioP1;P1;durP2;ratioP2;P2;SDS_P1;SDS_P2;PMS_P1;PMS_P2;Temp;Humidity;BMP_temperature;BMP_pressure;BME280_temperature;BME280_humidity;BME280_pressure;Samples;Min_cycle;Max_cycle;Signal;HPM_P1;HPM_P2
2023/01/22 00:03:59;;;;;;;;;;;;;;;;;;;;;
2023/01/22 00:10:07;;;;;;;;;;;;;;;;;;;;;
2023/01/22 00:16:00;;;;;;;16.90;7.70;;;;;;;0.61;100.00;101558.80;216745;1299;139444;-86
2023/01/22 00:21:59;;;;;;;;;;;;;;;;;;;;;
2023/01/22 00:27:54;;;;;;;;;;;;;;;;;;;;;
2023/01/22 00:33:40;;;;;;;;;;;;;;;0.63;100.00;101565.77;216156;1298;138927;-87
2023/01/22 00:39:41;;;;;;;16.30;6.80;;;;;;;0.61;100.00;101568.02;216309;1298;125030;-89
2023/01/22 00:45:32;;;;;;;18.00;6.80;;;;;;;0.62;100.00;101566.59;216863;1297;138776;-87
2023/01/22 00:51:33;;;;;;;;;;;;;;;;;;;;;
2023/01/22 00:57:25;;;;;;;;;;;;;;;;;;;;;
2023/01/22 01:10:09;;;;;;;15.60;7.40;;;;;;;0.65;100.00;101559.02;215245;1306;139392;-86
2023/01/22 01:15:52;;;;;;;14.00;6.50;;;;;;;0.65;100.00;101561.41;216615;1299;138924;-83
2023/01/22 01:27:56;;;;;;;15.70;6.70;;;;;;;0.65;100.00;101573.89;216859;1298;138701;-88
2023/01/22 01:33:58;;;;;;;21.60;8.80;;;;;;;0.66;100.00;101582.16;216368;1298;139624;-85
2023/01/22 01:39:59;;;;;;;22.80;9.10;;;;;;;0.65;100.00;101586.73;216311;1299;138846;-86
2023/01/22 01:46:19;;;;;;;16.80;7.90;;;;;;;0.67;100.00;101581.23;216654;1299;141505;-89
2023/01/22 01:52:27;;;;;;;17.10;7.50;;;;;;;0.67;100.00;101581.24;216318;1299;140610;-85
2023/01/22 01:58:20;;;;;;;;;;;;;;;;;;;;;
2023/01/22 02:04:22;;;;;;;20.60;8.80;;;;;;;0.66;100.00;101594.30;216481;1299;138695;-86
2023/01/22 02:10:23;;;;;;;18.80;8.10;;;;;;;0.67;100.00;101588.91;216309;1299;138844;-89
2023/01/22 02:16:24;;;;;;;22.20;9.50;;;;;;;0.67;100.00;101590.99;216818;1298;139653;-85
2023/01/22 02:22:48;;;;;;;;;;;;;;;;;;;;;
2023/01/22 02:28:39;;;;;;;19.00;7.60;;;;;;;0.67;100.00;101604.48;216582;1299;138819;-82
2023/01/22 02:40:34;;;;;;;;;;;;;;;;;;;;;
2023/01/22 02:46:43;;;;;;;20.10;8.70;;;;;;;0.66;100.00;101612.13;216836;1299;138883;-89
2023/01/22 02:52:45;;;;;;;21.40;8.90;;;;;;;0.67;100.00;101613.57;216194;1298;138943;-85
2023/01/22 02:58:46;;;;;;;18.00;8.30;;;;;;;0.67;100.00;101626.04;216710;1299;139574;-85
2023/01/22 03:04:49;;;;;;;17.30;7.20;;;;;;;0.69;100.00;101630.25;216822;1299;139338;-86
2023/01/22 03:10:48;;;;;;;18.80;8.70;;;;;;;0.68;100.00;101631.94;216269;1299;139597;-86
2023/01/22 03:22:48;;;;;;;18.70;8.00;;;;;;;0.68;100.00;101643.16;216300;1299;139466;-87
2023/01/22 03:28:39;;;;;;;;;;;;;;;;;;;;;
2023/01/22 03:34:41;;;;;;;19.20;9.10;;;;;;;0.68;100.00;101647.27;216369;1299;139376;-88
2023/01/22 03:40:53;;;;;;;;;;;;;;;;;;;;;
2023/01/22 03:46:36;;;;;;;;;;;;;;;;;;;;;
2023/01/22 03:52:38;;;;;;;23.70;10.40;;;;;;;0.65;100.00;101653.31;216218;1298;139203;-89
2023/01/22 03:58:28;;;;;;;21.60;9.80;;;;;;;0.65;100.00;101653.90;216872;1298;139192;-86
2023/01/22 04:04:29;;;;;;;21.50;9.30;;;;;;;0.66;100.00;101656.39;216594;1298;139480;-86
2023/01/22 04:10:30;;;;;;;28.70;12.80;;;;;;;0.66;100.00;101661.38;216273;1298;139402;-85
2023/01/22 04:16:32;;;;;;;22.30;9.50;;;;;;;0.67;100.00;101664.79;216655;1299;139293;-85
2023/01/22 04:22:26;;;;;;;20.90;9.00;;;;;;;0.66;100.00;101664.41;216453;1298;139210;-83
2023/01/22 04:28:20;;;;;;;27.20;11.90;;;;;;;0.64;100.00;101663.28;216879;1298;139310;-82
2023/01/22 04:34:19;;;;;;;;;;;;;;;;;;;;;
2023/01/22 04:40:21;;;;;;;23.60;10.00;;;;;;;0.65;100.00;101685.12;216280;1297;139228;-83
2023/01/22 04:52:23;;;;;;;29.50;12.90;;;;;;;0.67;100.00;101695.67;216176;1299;139201;-84
2023/01/22 04:58:25;;;;;;;28.10;10.90;;;;;;;0.69;100.00;101705.46;216778;1299;138887;-85
2023/01/22 05:04:26;;;;;;;49.00;16.30;;;;;;;0.70;100.00;101714.33;216343;1299;211779;-85
2023/01/22 05:10:28;;;;;;;37.50;13.50;;;;;;;0.70;100.00;101721.34;216113;1299;139259;-86
2023/01/22 05:16:29;;;;;;;39.10;13.70;;;;;;;0.70;100.00;101729.29;216755;1299;139008;-86
2023/01/22 05:22:30;;;;;;;37.90;13.60;;;;;;;0.69;100.00;101735.48;216323;1299;139246;-87
2023/01/22 05:28:31;;;;;;;38.00;12.80;;;;;;;0.71;100.00;101738.02;216820;1298;139395;-88
2023/01/22 05:34:33;;;;;;;81.20;30.70;;;;;;;0.72;100.00;101741.52;216578;1298;139394;-88
2023/01/22 05:40:34;;;;;;;54.70;17.90;;;;;;;0.71;100.00;101744.14;216335;1298;138961;-90
2023/01/22 05:46:36;;;;;;;34.80;13.40;;;;;;;0.70;100.00;101743.38;217205;1299;139442;-90
2023/01/22 05:52:36;;;;;;;83.40;30.90;;;;;;;0.71;100.00;101742.29;216948;1298;138974;-91
2023/01/22 06:36:22;;;;;;;29.90;11.80;;;;;;;0.69;100.00;101773.78;217477;1299;138858;-90
2023/01/22 06:48:25;;;;;;;69.10;26.00;;;;;;;0.69;100.00;101784.20;218052;1297;100804;-89
2023/01/22 06:54:26;;;;;;;43.80;15.10;;;;;;;0.69;100.00;101795.59;216985;1296;138788;-89
2023/01/22 07:00:27;;;;;;;30.20;12.40;;;;;;;0.69;100.00;101806.90;216731;1296;139375;-88
2023/01/22 07:06:17;;;;;;;;;;;;;;;;;;;;;
2023/01/22 07:12:02;;;;;;;;;;;;;;;;;;;;;
2023/01/22 07:30:06;;;;;;;;;;;;;;;;;;;;;
2023/01/22 07:36:09;;;;;;;36.30;14.70;;;;;;;0.73;100.00;101836.30;217237;1296;138957;-88
2023/01/22 07:42:11;;;;;;;31.10;13.10;;;;;;;0.73;100.00;101849.25;216601;1296;139156;-86
2023/01/22 07:48:09;;;;;;;30.30;13.70;;;;;;;0.76;100.00;101861.65;217014;1296;138946;-87
2023/01/22 07:54:12;;;;;;;31.50;12.20;;;;;;;0.76;100.00;101864.95;216708;1296;139518;-85
2023/01/22 08:00:14;;;;;;;34.00;11.90;;;;;;;0.76;100.00;101868.48;216599;1296;139384;-87
2023/01/22 08:06:24;;;;;;;;;;;;;;;;;;;;;
2023/01/22 08:12:15;;;;;;;31.90;13.50;;;;;;;0.78;100.00;101874.00;216600;1296;139352;-87
2023/01/22 08:18:09;;;;;;;;;;;;;;;;;;;;;
2023/01/22 08:30:14;;;;;;;44.40;15.30;;;;;;;0.82;100.00;101893.34;216765;1296;138942;-88
2023/01/22 08:42:02;;;;;;;;;;;;;;;;;;;;;
2023/01/22 08:48:12;;;;;;;47.40;21.90;;;;;;;0.84;100.00;101903.89;217200;1296;139022;-89
2023/01/22 08:59:49;;;;;;;32.90;14.30;;;;;;;0.86;100.00;101908.33;216512;1296;138953;-86
2023/01/22 09:05:50;;;;;;;38.80;15.50;;;;;;;0.85;100.00;101913.05;217026;1296;139284;-87
2023/01/22 09:11:51;;;;;;;37.40;16.40;;;;;;;0.84;100.00;101917.56;216458;1296;138677;-87
2023/01/22 09:17:52;;;;;;;36.50;16.70;;;;;;;0.85;100.00;101914.03;217013;1296;138693;-87
2023/01/22 09:23:54;;;;;;;32.90;13.50;;;;;;;0.86;100.00;101913.05;216662;1296;138968;-88
2023/01/22 09:29:55;;;;;;;40.90;16.30;;;;;;;0.86;100.00;101919.34;216496;1296;139022;-88
2023/01/22 09:35:56;;;;;;;50.00;20.60;;;;;;;0.88;100.00;101925.89;217137;1296;139440;-88
2023/01/22 09:54:21;;;;;;;;;;;;;;;;;;;;;
2023/01/22 10:00:26;;;;;;;41.30;15.20;;;;;;;0.90;100.00;101925.24;216448;1296;138982;-86
2023/01/22 10:06:42;;;;;;;34.30;14.70;;;;;;;0.89;100.00;101929.63;216981;1296;138759;-85
2023/01/22 10:12:41;;;;;;;40.70;16.40;;;;;;;0.91;100.00;101928.96;216296;1301;140857;-84
2023/01/22 10:18:42;;;;;;;37.70;15.00;;;;;;;0.93;100.00;101928.10;216939;1296;139627;-86
2023/01/22 10:24:42;;;;;;;36.00;16.50;;;;;;;0.95;100.00;101933.56;216940;1296;139111;-85
2023/01/22 10:30:57;;;;;;;33.90;15.80;;;;;;;0.98;100.00;101945.96;216541;1296;139455;-85
2023/01/22 10:36:56;;;;;;;29.60;14.80;;;;;;;0.98;100.00;101954.91;217052;1301;138819;-85
2023/01/22 10:42:46;;;;;;;33.00;14.90;;;;;;;0.99;100.00;101957.30;216576;1296;138702;-85
2023/01/22 10:48:54;;;;;;;33.50;13.50;;;;;;;0.98;100.00;101957.35;216992;1296;138968;-86
2023/01/22 10:54:52;;;;;;;;;;;;;;;;;;;;;
2023/01/22 11:01:08;;;;;;;37.90;16.90;;;;;;;1.01;100.00;101961.52;216262;1297;139588;-88
2023/01/22 11:07:12;;;;;;;;;;;;;;;;;;;;;
2023/01/22 11:13:16;;;;;;;34.40;15.10;;;;;;;0.99;100.00;101955.02;216203;1296;139516;-86
2023/01/22 11:19:18;;;;;;;37.30;15.50;;;;;;;0.97;100.00;101949.70;216302;1297;140409;-88
2023/01/22 11:31:37;;;;;;;33.60;14.00;;;;;;;0.96;100.00;101949.50;216518;1296;139698;-87
2023/01/22 11:37:52;;;;;;;;;;;;;;;;;;;;;
2023/01/22 11:44:01;;;;;;;30.60;14.20;;;;;;;1.02;100.00;101948.06;216513;1298;139719;-86
2023/01/22 11:50:17;;;;;;;34.30;17.30;;;;;;;1.03;100.00;101947.57;216631;1297;139267;-86
2023/01/22 11:56:24;;;;;;;33.70;14.60;;;;;;;1.09;100.00;101945.34;217008;1296;108111;-86
2023/01/22 12:02:28;;;;;;;34.50;14.20;;;;;;;1.07;100.00;101942.25;216580;1298;139257;-88
2023/01/22 12:08:56;;;;;;;30.90;14.20;;;;;;;1.03;100.00;101945.08;216862;1301;107545;-90
2023/01/22 12:14:35;;;;;;;;;;;;;;;;;;;;;
2023/01/22 12:27:03;;;;;;;37.60;16.70;;;;;;;1.05;100.00;101946.98;217191;1296;107460;-89
2023/01/22 12:32:56;;;;;;;;;;;;;;;;;;;;;
2023/01/22 12:45:02;;;;;;;32.50;16.50;;;;;;;1.02;100.00;101959.77;217399;1296;106518;-88
2023/01/22 12:51:02;;;;;;;;;;;;;;;;;;;;;
2023/01/22 12:57:08;;;;;;;42.50;18.70;;;;;;;0.97;100.00;101959.85;217199;1299;108019;-90
2023/01/22 13:03:18;;;;;;;35.30;16.80;;;;;;;0.96;100.00;101963.05;216999;1298;139586;-91
2023/01/22 13:09:29;;;;;;;;;;;;;;;;;;;;;
2023/01/22 13:15:20;;;;;;;37.00;17.40;;;;;;;0.97;100.00;101968.95;217465;1297;107421;-91
2023/01/22 13:21:22;;;;;;;40.20;18.80;;;;;;;0.98;100.00;101975.02;217109;1297;139050;-94
2023/01/22 13:27:23;;;;;;;39.30;19.50;;;;;;;0.99;100.00;101976.11;217655;1296;107795;-91
2023/01/22 13:33:16;;;;;;;;;;;;;;;;;;;;;
2023/01/22 13:44:21;;;;;;;37.10;16.50;;;;;;;0.98;100.00;101995.14;216961;1298;139466;-87
2023/01/22 13:50:15;;;;;;;36.80;18.90;;;;;;;0.97;100.00;101995.67;216402;1298;138957;-88
2023/01/22 13:56:14;;;;;;;;;;;;;;;;;;;;;
2023/01/22 14:02:17;;;;;;;36.90;18.00;;;;;;;0.95;100.00;102002.04;216421;1298;139290;-85
2023/01/22 14:08:30;;;;;;;40.20;18.60;;;;;;;0.94;100.00;102010.12;216940;1299;138728;-85
2023/01/22 14:14:29;;;;;;;;;;;;;;;;;;;;;
2023/01/22 14:20:21;;;;;;;40.60;17.20;;;;;;;0.96;100.00;102010.33;216366;1298;138757;-87
2023/01/22 14:26:02;;;;;;;38.20;18.40;;;;;;;0.95;100.00;102020.20;216754;1299;140175;-85
2023/01/22 14:32:03;;;;;;;36.10;17.00;;;;;;;0.94;100.00;102020.20;216335;1298;138998;-85
2023/01/22 14:38:00;;;;;;;40.70;18.20;;;;;;;0.93;100.00;102019.29;216629;1298;138717;-85
2023/01/22 14:43:55;;;;;;;40.90;18.20;;;;;;;0.92;100.00;102030.34;216181;1299;139688;-85
2023/01/22 14:49:48;;;;;;;42.50;20.20;;;;;;;0.89;100.00;102035.10;216173;1299;139241;-82
2023/01/22 14:55:49;;;;;;;45.10;19.40;;;;;;;0.88;100.00;102039.40;216716;1299;139495;-83
2023/01/22 15:01:53;;;;;;;35.60;17.90;;;;;;;0.87;100.00;102044.77;215285;1307;140093;-84
2023/01/22 15:07:54;;;;;;;40.80;17.90;;;;;;;0.87;100.00;102040.37;215835;1305;138837;-82
2023/01/22 15:13:38;;;;;;;39.60;18.00;;;;;;;0.87;100.00;102042.59;216077;1299;139103;-84
2023/01/22 15:19:33;;;;;;;41.50;18.70;;;;;;;0.86;100.00;102048.35;216229;1298;138986;-83
2023/01/22 15:25:34;;;;;;;46.10;19.20;;;;;;;0.85;100.00;102049.77;216330;1298;140120;-87
2023/01/22 15:31:35;;;;;;;42.30;19.90;;;;;;;0.85;100.00;102058.33;215960;1299;139378;-86
2023/01/22 15:37:36;;;;;;;51.60;20.50;;;;;;;0.84;100.00;102062.23;216608;1299;139380;-85
2023/01/22 15:43:37;;;;;;;46.10;19.80;;;;;;;0.84;100.00;102058.11;216260;1299;138947;-85
2023/01/22 15:49:39;;;;;;;47.90;20.60;;;;;;;0.84;100.00;102060.86;216181;1298;139275;-86
2023/01/22 15:55:39;;;;;;;45.00;20.40;;;;;;;0.83;100.00;102059.95;216855;1299;138893;-84
2023/01/22 16:01:41;;;;;;;43.40;19.30;;;;;;;0.83;100.00;102064.88;216253;1298;139283;-83
2023/01/22 16:07:34;;;;;;;37.90;19.20;;;;;;;0.84;100.00;102071.34;216851;1297;138944;-84
2023/01/22 16:13:36;;;;;;;56.90;21.90;;;;;;;0.86;100.00;102085.14;216147;1299;139491;-85
2023/01/22 16:19:37;;;;;;;41.70;18.50;;;;;;;0.86;100.00;102088.95;216274;1299;139186;-84
2023/01/22 16:25:38;;;;;;;69.40;32.50;;;;;;;0.87;100.00;102092.14;216639;1297;138767;-85
2023/01/22 16:31:42;;;;;;;54.80;23.30;;;;;;;0.87;100.00;102098.11;216109;1299;139052;-85
2023/01/22 16:37:43;;;;;;;51.50;20.10;;;;;;;0.86;100.00;102101.80;216489;1297;138779;-85
2023/01/22 16:43:26;;;;;;;;;;;;;;;;;;;;;
2023/01/22 16:49:26;;;;;;;;;;;;;;;;;;;;;
2023/01/22 16:55:17;;;;;;;42.60;17.70;;;;;;;0.84;100.00;102110.64;216650;1299;138718;-84
2023/01/22 17:01:12;;;;;;;46.20;18.60;;;;;;;0.85;100.00;102116.98;216340;1298;139500;-86
2023/01/22 17:13:14;;;;;;;47.10;19.40;;;;;;;0.84;100.00;102121.20;216179;1299;139613;-86
2023/01/22 17:19:09;;;;;;;48.10;19.80;;;;;;;0.85;100.00;102128.73;216245;1299;139612;-86
2023/01/22 17:25:10;;;;;;;48.00;21.80;;;;;;;0.86;100.00;102136.16;216656;1297;139706;-88
2023/01/22 17:31:04;;;;;;;40.20;18.80;;;;;;;0.87;100.00;102143.41;216152;1302;139204;-87
2023/01/22 17:37:09;;;;;;;48.70;21.00;;;;;;;0.87;100.00;102147.04;216845;1298;139880;-86
2023/01/22 17:49:03;;;;;;;42.30;20.50;;;;;;;0.89;100.00;102155.13;216566;1298;140202;-87
2023/01/22 17:55:02;;;;;;;48.50;20.90;;;;;;;0.89;100.00;102160.61;216588;1299;140132;-86
2023/01/22 18:00:44;;;;;;;35.90;16.60;;;;;;;0.89;100.00;102171.61;216271;1298;139757;-87
2023/01/22 18:06:46;;;;;;;41.90;18.10;;;;;;;0.89;100.00;102181.04;216829;1298;139695;-87
2023/01/22 18:12:48;;;;;;;42.10;20.10;;;;;;;0.90;100.00;102192.10;216200;1299;139593;-87
2023/01/22 18:18:39;;;;;;;39.80;18.00;;;;;;;0.91;100.00;102200.89;212896;1298;5378899;-87
2023/01/22 18:24:13;;;;;;;43.30;22.20;;;;;;;0.91;100.00;102203.55;216485;1298;140211;-87
2023/01/22 18:30:15;;;;;;;39.60;18.40;;;;;;;0.92;100.00;102205.98;216188;1301;139507;-86
2023/01/22 18:36:16;;;;;;;42.60;19.70;;;;;;;0.91;100.00;102203.00;216803;1301;139661;-86
2023/01/22 18:42:11;;;;;;;48.50;22.10;;;;;;;0.90;100.00;102208.38;216163;1299;139486;-87
2023/01/22 18:48:11;;;;;;;49.10;21.70;;;;;;;0.91;100.00;102206.52;216838;1298;139691;-87
2023/01/22 18:54:11;;;;;;;49.50;25.50;;;;;;;0.91;100.00;102202.03;216255;1298;139029;-87
2023/01/22 19:00:14;;;;;;;57.60;28.00;;;;;;;0.90;100.00;102201.27;216320;1298;139658;-87
2023/01/22 19:06:32;;;;;;;48.70;26.20;;;;;;;0.89;100.00;102202.30;216689;1299;139357;-86
2023/01/22 19:12:12;;;;;;;47.70;22.80;;;;;;;0.88;100.00;102209.56;216066;1298;139506;-87
2023/01/22 19:18:10;;;;;;;50.10;23.40;;;;;;;0.88;100.00;102221.38;216705;1298;139407;-86
2023/01/22 19:24:12;;;;;;;54.90;25.30;;;;;;;0.89;100.00;102222.95;216308;1300;139670;-84
2023/01/22 19:30:11;;;;;;;52.50;23.50;;;;;;;0.90;100.00;102236.34;216280;1299;139340;-86
2023/01/22 19:36:12;;;;;;;47.70;23.70;;;;;;;0.90;100.00;102245.40;216822;1298;138920;-87
2023/01/22 19:42:06;;;;;;;52.30;24.30;;;;;;;0.89;100.00;102250.00;216384;1299;139384;-87
2023/01/22 19:48:07;;;;;;;64.30;28.30;;;;;;;0.89;100.00;102248.91;216813;1299;139259;-90
2023/01/22 19:54:00;;;;;;;56.00;25.80;;;;;;;0.89;100.00;102254.65;216471;1298;139494;-89
2023/01/22 19:59:57;;;;;;;72.10;29.40;;;;;;;0.90;100.00;102257.44;216440;1299;139456;-88
2023/01/22 20:05:55;;;;;;;53.90;25.40;;;;;;;0.88;100.00;102255.89;216838;1299;139310;-87
2023/01/22 20:11:58;;;;;;;;;;;;;;;;;;;;;
2023/01/22 20:24:03;;;;;;;49.10;22.60;;;;;;;0.85;100.00;102266.64;216385;1298;139356;-87
2023/01/22 20:29:51;;;;;;;;;;;;;;;;;;;;;
2023/01/22 20:35:53;;;;;;;56.50;25.00;;;;;;;0.84;100.00;102265.83;216775;1298;139479;-90
2023/01/22 20:42:02;;;;;;;48.10;21.30;;;;;;;0.84;100.00;102278.02;216817;1298;139540;-93
2023/01/22 21:35:49;;;;;;;61.20;27.90;;;;;;;0.77;100.00;102302.01;217111;1296;139937;-90
2023/01/22 21:41:52;;;;;;;44.70;23.40;;;;;;;0.75;100.00;102296.09;216461;1300;139151;-90
2023/01/22 21:47:51;;;;;;;43.50;21.50;;;;;;;0.74;100.00;102298.53;217096;1298;139650;-89
2023/01/22 21:53:53;;;;;;;49.20;22.10;;;;;;;0.74;100.00;102303.25;216352;1300;140121;-86
2023/01/22 21:59:54;;;;;;;43.80;21.40;;;;;;;0.73;100.00;102304.39;216525;1298;139410;-87
2023/01/22 22:05:55;;;;;;;44.30;21.40;;;;;;;0.72;100.00;102320.86;216976;1298;139143;-89
2023/01/22 22:11:56;;;;;;;44.50;22.30;;;;;;;0.71;100.00;102323.23;216439;1296;139260;-86
2023/01/22 22:17:58;;;;;;;43.70;20.20;;;;;;;0.70;100.00;102326.70;217013;1296;139208;-89
2023/01/22 22:23:59;;;;;;;54.50;23.60;;;;;;;0.70;100.00;102322.86;216449;1296;138954;-85
2023/01/22 22:30:00;;;;;;;49.40;22.50;;;;;;;0.72;100.00;102328.94;216474;1295;139481;-86
2023/01/22 22:36:26;;;;;;;48.20;24.20;;;;;;;0.73;100.00;102335.11;216961;1296;140014;-86
2023/01/22 22:42:05;;;;;;;54.70;23.10;;;;;;;0.73;100.00;102342.80;216323;1296;139183;-86
2023/01/22 22:48:31;;;;;;;63.90;27.20;;;;;;;0.74;100.00;102353.71;217064;1296;139077;-85
2023/01/22 22:54:08;;;;;;;48.10;22.10;;;;;;;0.74;100.00;102360.48;216360;1296;140888;-85
2023/01/22 23:00:10;;;;;;;47.20;19.30;;;;;;;0.72;100.00;102360.36;216521;1296;140537;-85
2023/01/22 23:06:10;;;;;;;48.70;21.70;;;;;;;0.70;100.00;102364.36;216952;1296;139860;-86
2023/01/22 23:23:10;;;;;;;37.90;18.00;;;;;;;0.72;100.00;102382.20;217122;1297;139682;-91
2023/01/22 23:29:12;;;;;;;37.60;16.50;;;;;;;0.70;100.00;102384.09;217225;1297;140815;-92
2023/01/22 23:35:12;;;;;;;31.40;14.90;;;;;;;0.68;100.00;102388.96;217458;1300;139126;-90
2023/01/22 23:41:06;;;;;;;36.90;17.20;;;;;;;0.67;100.00;102394.05;217121;1300;139643;-91
2023/01/22 23:47:07;;;;;;;36.20;16.20;;;;;;;0.69;100.00;102399.05;217625;1299;138968;-90
2023/01/22 23:53:00;;;;;;;37.00;16.30;;;;;;;0.67;100.00;102402.66;217093;1298;138978;-92
2023/01/22 23:58:17;;;;;;;30.20;13.50;;;;;;;0.68;100.00;102409.02;217306;1297;139097;-90
